sensor_id;sensor_type;location;lat;lon;timestamp;P1;durP1;ratioP1;P2;durP2;ratioP2
71183;SDS011;58887;51.980;4.464;2022-07-17T00:01:27;2.17;;;2.17;;
71183;SDS011;58887;51.980;4.464;2022-07-17T00:03:52;1.99;;;1.99;;
71183;SDS011;58887;51.980;4.464;2022-07-17T00:06:18;2.22;;;2.22;;
71183;SDS011;58887;51.980;4.464;2022-07-17T00:08:43;2.11;;;2.11;;
71183;SDS011;58887;51.980;4.464;2022-07-17T00:11:09;2.11;;;2.11;;
71183;SDS011;58887;51.980;4.464;2022-07-17T00:13:34;2.24;;;2.24;;
71183;SDS011;58887;51.980;4.464;2022-07-17T00:16:00;2.20;;;2.20;;
71183;SDS011;58887;51.980;4.464;2022-07-17T00:18:25;2.11;;;2.11;;
71183;SDS011;58887;51.980;4.464;2022-07-17T00:20:51;2.16;;;2.15;;
71183;SDS011;58887;51.980;4.464;2022-07-17T00:23:16;2.12;;;2.12;;
71183;SDS011;58887;51.980;4.464;2022-07-17T00:25:42;2.13;;;2.13;;
71183;SDS011;58887;51.980;4.464;2022-07-17T00:28:08;2.33;;;2.33;;
71183;SDS011;58887;51.980;4.464;2022-07-17T00:30:33;2.17;;;2.17;;
71183;SDS011;58887;51.980;4.464;2022-07-17T00:32:59;2.31;;;2.30;;
71183;SDS011;58887;51.980;4.464;2022-07-17T00:35:24;2.38;;;2.38;;
71183;SDS011;58887;51.980;4.464;2022-07-17T00:37:50;1.98;;;1.98;;
71183;SDS011;58887;51.980;4.464;2022-07-17T00:40:18;2.25;;;2.25;;
71183;SDS011;58887;51.980;4.464;2022-07-17T00:42:46;2.27;;;2.27;;
71183;SDS011;58887;51.980;4.464;2022-07-17T00:45:13;2.13;;;2.12;;
71183;SDS011;58887;51.980;4.464;2022-07-17T00:50:32;1.89;;;1.89;;
71183;SDS011;58887;51.980;4.464;2022-07-17T00:53:06;1.97;;;1.97;;
71183;SDS011;58887;51.980;4.464;2022-07-17T00:55:33;2.12;;;2.11;;
71183;SDS011;58887;51.980;4.464;2022-07-17T00:58:00;2.25;;;2.25;;
71183;SDS011;58887;51.980;4.464;2022-07-17T01:00:27;2.41;;;2.41;;
71183;SDS011;58887;51.980;4.464;2022-07-17T01:02:54;2.32;;;2.32;;
71183;SDS011;58887;51.980;4.464;2022-07-17T01:05:20;2.44;;;2.44;;
71183;SDS011;58887;51.980;4.464;2022-07-17T01:07:47;2.67;;;2.67;;
71183;SDS011;58887;51.980;4.464;2022-07-17T01:10:14;2.55;;;2.55;;
71183;SDS011;58887;51.980;4.464;2022-07-17T01:12:41;2.61;;;2.61;;
71183;SDS011;58887;51.980;4.464;2022-07-17T01:15:10;2.69;;;2.69;;
71183;SDS011;58887;51.980;4.464;2022-07-17T01:17:36;2.51;;;2.51;;
71183;SDS011;58887;51.980;4.464;2022-07-17T01:20:05;2.83;;;2.83;;
71183;SDS011;58887;51.980;4.464;2022-07-17T01:22:39;2.74;;;2.74;;
71183;SDS011;58887;51.980;4.464;2022-07-17T01:25:06;2.88;;;2.88;;
71183;SDS011;58887;51.980;4.464;2022-07-17T01:27:31;2.87;;;2.87;;
71183;SDS011;58887;51.980;4.464;2022-07-17T01:29:57;2.81;;;2.81;;
71183;SDS011;58887;51.980;4.464;2022-07-17T01:32:30;2.89;;;2.89;;
71183;SDS011;58887;51.980;4.464;2022-07-17T01:34:57;2.71;;;2.71;;
71183;SDS011;58887;51.980;4.464;2022-07-17T01:37:23;2.77;;;2.77;;
71183;SDS011;58887;51.980;4.464;2022-07-17T01:39:48;2.84;;;2.84;;
71183;SDS011;58887;51.980;4.464;2022-07-17T01:42:20;2.83;;;2.83;;
71183;SDS011;58887;51.980;4.464;2022-07-17T01:44:47;2.75;;;2.75;;
71183;SDS011;58887;51.980;4.464;2022-07-17T01:47:13;2.72;;;2.72;;
71183;SDS011;58887;51.980;4.464;2022-07-17T01:49:44;3.01;;;3.01;;
71183;SDS011;58887;51.980;4.464;2022-07-17T01:52:11;3.02;;;3.02;;
71183;SDS011;58887;51.980;4.464;2022-07-17T01:54:37;3.01;;;3.01;;
71183;SDS011;58887;51.980;4.464;2022-07-17T01:57:02;3.17;;;3.17;;
71183;SDS011;58887;51.980;4.464;2022-07-17T01:59:28;3.20;;;3.20;;
71183;SDS011;58887;51.980;4.464;2022-07-17T02:01:53;3.13;;;3.13;;
71183;SDS011;58887;51.980;4.464;2022-07-17T02:04:19;3.30;;;3.30;;
71183;SDS011;58887;51.980;4.464;2022-07-17T02:06:44;3.02;;;3.02;;
71183;SDS011;58887;51.980;4.464;2022-07-17T02:09:10;3.15;;;3.15;;
71183;SDS011;58887;51.980;4.464;2022-07-17T02:11:36;3.10;;;3.10;;
71183;SDS011;58887;51.980;4.464;2022-07-17T02:14:01;3.31;;;3.31;;
71183;SDS011;58887;51.980;4.464;2022-07-17T02:16:28;3.41;;;3.41;;
71183;SDS011;58887;51.980;4.464;2022-07-17T02:18:53;3.44;;;3.44;;
71183;SDS011;58887;51.980;4.464;2022-07-17T02:21:19;3.25;;;3.25;;
71183;SDS011;58887;51.980;4.464;2022-07-17T02:23:44;3.11;;;3.11;;
71183;SDS011;58887;51.980;4.464;2022-07-17T02:26:10;3.26;;;3.26;;
71183;SDS011;58887;51.980;4.464;2022-07-17T02:28:35;3.16;;;3.16;;
71183;SDS011;58887;51.980;4.464;2022-07-17T02:31:01;2.91;;;2.91;;
71183;SDS011;58887;51.980;4.464;2022-07-17T02:33:26;2.97;;;2.97;;
71183;SDS011;58887;51.980;4.464;2022-07-17T02:35:52;3.21;;;3.21;;
71183;SDS011;58887;51.980;4.464;2022-07-17T02:38:17;3.24;;;3.24;;
71183;SDS011;58887;51.980;4.464;2022-07-17T02:40:45;3.17;;;3.17;;
71183;SDS011;58887;51.980;4.464;2022-07-17T02:43:12;3.06;;;3.06;;
71183;SDS011;58887;51.980;4.464;2022-07-17T02:45:37;3.28;;;3.28;;
71183;SDS011;58887;51.980;4.464;2022-07-17T02:48:03;3.24;;;3.24;;
71183;SDS011;58887;51.980;4.464;2022-07-17T02:50:28;3.21;;;3.21;;
71183;SDS011;58887;51.980;4.464;2022-07-17T02:52:54;3.21;;;3.21;;
71183;SDS011;58887;51.980;4.464;2022-07-17T02:55:19;3.19;;;3.19;;
71183;SDS011;58887;51.980;4.464;2022-07-17T02:57:45;2.99;;;2.99;;
71183;SDS011;58887;51.980;4.464;2022-07-17T03:00:14;3.07;;;3.07;;
71183;SDS011;58887;51.980;4.464;2022-07-17T03:02:43;3.01;;;3.01;;
71183;SDS011;58887;51.980;4.464;2022-07-17T03:05:09;2.99;;;2.99;;
71183;SDS011;58887;51.980;4.464;2022-07-17T03:07:36;2.93;;;2.93;;
71183;SDS011;58887;51.980;4.464;2022-07-17T03:10:01;3.01;;;3.01;;
71183;SDS011;58887;51.980;4.464;2022-07-17T03:12:28;2.99;;;2.99;;
71183;SDS011;58887;51.980;4.464;2022-07-17T03:14:53;2.81;;;2.81;;
71183;SDS011;58887;51.980;4.464;2022-07-17T03:17:19;3.04;;;3.04;;
71183;SDS011;58887;51.980;4.464;2022-07-17T03:19:44;3.20;;;3.20;;
71183;SDS011;58887;51.980;4.464;2022-07-17T03:22:10;2.98;;;2.98;;
71183;SDS011;58887;51.980;4.464;2022-07-17T03:24:35;2.92;;;2.92;;
71183;SDS011;58887;51.980;4.464;2022-07-17T03:27:00;3.13;;;3.13;;
71183;SDS011;58887;51.980;4.464;2022-07-17T03:29:26;2.98;;;2.98;;
71183;SDS011;58887;51.980;4.464;2022-07-17T03:31:51;2.76;;;2.76;;
71183;SDS011;58887;51.980;4.464;2022-07-17T03:34:17;2.70;;;2.70;;
71183;SDS011;58887;51.980;4.464;2022-07-17T03:36:42;2.73;;;2.73;;
71183;SDS011;58887;51.980;4.464;2022-07-17T03:39:08;2.83;;;2.83;;
71183;SDS011;58887;51.980;4.464;2022-07-17T03:41:33;2.88;;;2.88;;
71183;SDS011;58887;51.980;4.464;2022-07-17T03:43:59;2.82;;;2.82;;
71183;SDS011;58887;51.980;4.464;2022-07-17T03:46:25;2.73;;;2.73;;
71183;SDS011;58887;51.980;4.464;2022-07-17T03:48:51;2.65;;;2.65;;
71183;SDS011;58887;51.980;4.464;2022-07-17T03:51:16;3.21;;;3.21;;
71183;SDS011;58887;51.980;4.464;2022-07-17T03:53:42;3.15;;;3.15;;
71183;SDS011;58887;51.980;4.464;2022-07-17T03:56:07;3.07;;;3.07;;
71183;SDS011;58887;51.980;4.464;2022-07-17T03:58:33;3.34;;;3.34;;
71183;SDS011;58887;51.980;4.464;2022-07-17T04:00:59;3.18;;;3.18;;
71183;SDS011;58887;51.980;4.464;2022-07-17T04:03:25;3.08;;;3.08;;
71183;SDS011;58887;51.980;4.464;2022-07-17T04:05:51;3.00;;;3.00;;
71183;SDS011;58887;51.980;4.464;2022-07-17T04:08:17;3.04;;;3.04;;
71183;SDS011;58887;51.980;4.464;2022-07-17T04:10:43;3.06;;;3.06;;
71183;SDS011;58887;51.980;4.464;2022-07-17T04:13:09;2.92;;;2.92;;
71183;SDS011;58887;51.980;4.464;2022-07-17T04:15:36;3.10;;;3.10;;
71183;SDS011;58887;51.980;4.464;2022-07-17T04:18:20;3.04;;;3.04;;
71183;SDS011;58887;51.980;4.464;2022-07-17T04:20:46;2.95;;;2.95;;
71183;SDS011;58887;51.980;4.464;2022-07-17T04:23:12;3.02;;;3.02;;
71183;SDS011;58887;51.980;4.464;2022-07-17T04:25:38;2.95;;;2.95;;
71183;SDS011;58887;51.980;4.464;2022-07-17T04:28:05;2.97;;;2.97;;
71183;SDS011;58887;51.980;4.464;2022-07-17T04:30:30;2.77;;;2.77;;
71183;SDS011;58887;51.980;4.464;2022-07-17T04:32:56;2.92;;;2.92;;
71183;SDS011;58887;51.980;4.464;2022-07-17T04:35:21;2.84;;;2.84;;
71183;SDS011;58887;51.980;4.464;2022-07-17T04:37:47;2.95;;;2.95;;
71183;SDS011;58887;51.980;4.464;2022-07-17T04:40:12;3.18;;;3.18;;
71183;SDS011;58887;51.980;4.464;2022-07-17T04:42:38;2.99;;;2.99;;
71183;SDS011;58887;51.980;4.464;2022-07-17T04:45:04;3.04;;;3.04;;
71183;SDS011;58887;51.980;4.464;2022-07-17T04:47:30;3.00;;;3.00;;
71183;SDS011;58887;51.980;4.464;2022-07-17T04:49:56;3.04;;;3.04;;
71183;SDS011;58887;51.980;4.464;2022-07-17T04:52:21;2.97;;;2.97;;
71183;SDS011;58887;51.980;4.464;2022-07-17T04:54:47;2.96;;;2.96;;
71183;SDS011;58887;51.980;4.464;2022-07-17T04:57:12;2.74;;;2.74;;
71183;SDS011;58887;51.980;4.464;2022-07-17T04:59:38;2.92;;;2.92;;
71183;SDS011;58887;51.980;4.464;2022-07-17T05:02:03;3.04;;;3.04;;
71183;SDS011;58887;51.980;4.464;2022-07-17T05:04:29;2.75;;;2.75;;
71183;SDS011;58887;51.980;4.464;2022-07-17T05:06:55;2.77;;;2.77;;
71183;SDS011;58887;51.980;4.464;2022-07-17T05:09:20;2.58;;;2.58;;
71183;SDS011;58887;51.980;4.464;2022-07-17T05:11:45;2.44;;;2.44;;
71183;SDS011;58887;51.980;4.464;2022-07-17T05:14:11;2.69;;;2.69;;
71183;SDS011;58887;51.980;4.464;2022-07-17T05:16:37;2.95;;;2.95;;
71183;SDS011;58887;51.980;4.464;2022-07-17T05:19:04;2.94;;;2.94;;
71183;SDS011;58887;51.980;4.464;2022-07-17T05:21:30;2.90;;;2.90;;
71183;SDS011;58887;51.980;4.464;2022-07-17T05:23:55;2.73;;;2.73;;
71183;SDS011;58887;51.980;4.464;2022-07-17T05:26:21;2.99;;;2.99;;
71183;SDS011;58887;51.980;4.464;2022-07-17T05:28:47;3.01;;;3.01;;
71183;SDS011;58887;51.980;4.464;2022-07-17T05:31:12;2.77;;;2.77;;
71183;SDS011;58887;51.980;4.464;2022-07-17T05:33:38;2.99;;;2.99;;
71183;SDS011;58887;51.980;4.464;2022-07-17T05:36:03;2.99;;;2.99;;
71183;SDS011;58887;51.980;4.464;2022-07-17T05:38:29;3.14;;;3.14;;
71183;SDS011;58887;51.980;4.464;2022-07-17T05:40:54;3.27;;;3.27;;
71183;SDS011;58887;51.980;4.464;2022-07-17T05:43:20;2.85;;;2.85;;
71183;SDS011;58887;51.980;4.464;2022-07-17T05:45:45;2.50;;;2.49;;
71183;SDS011;58887;51.980;4.464;2022-07-17T05:48:11;2.34;;;2.33;;
71183;SDS011;58887;51.980;4.464;2022-07-17T05:50:36;2.11;;;2.11;;
71183;SDS011;58887;51.980;4.464;2022-07-17T05:53:02;2.32;;;2.31;;
71183;SDS011;58887;51.980;4.464;2022-07-17T05:55:27;2.20;;;2.17;;
71183;SDS011;58887;51.980;4.464;2022-07-17T05:57:53;1.99;;;1.99;;
71183;SDS011;58887;51.980;4.464;2022-07-17T06:00:19;2.05;;;2.02;;
71183;SDS011;58887;51.980;4.464;2022-07-17T06:02:45;2.02;;;1.99;;
71183;SDS011;58887;51.980;4.464;2022-07-17T06:05:11;2.06;;;1.97;;
71183;SDS011;58887;51.980;4.464;2022-07-17T06:07:36;2.10;;;2.02;;
71183;SDS011;58887;51.980;4.464;2022-07-17T06:10:03;1.97;;;1.89;;
71183;SDS011;58887;51.980;4.464;2022-07-17T06:12:30;2.01;;;1.93;;
71183;SDS011;58887;51.980;4.464;2022-07-17T06:14:55;2.05;;;1.98;;
71183;SDS011;58887;51.980;4.464;2022-07-17T06:17:21;1.95;;;1.92;;
71183;SDS011;58887;51.980;4.464;2022-07-17T06:19:46;1.81;;;1.75;;
71183;SDS011;58887;51.980;4.464;2022-07-17T06:22:11;1.73;;;1.67;;
71183;SDS011;58887;51.980;4.464;2022-07-17T06:24:37;1.68;;;1.62;;
71183;SDS011;58887;51.980;4.464;2022-07-17T06:27:02;1.87;;;1.77;;
71183;SDS011;58887;51.980;4.464;2022-07-17T06:29:28;1.77;;;1.67;;
71183;SDS011;58887;51.980;4.464;2022-07-17T06:31:53;1.75;;;1.66;;
71183;SDS011;58887;51.980;4.464;2022-07-17T06:34:19;1.84;;;1.73;;
71183;SDS011;58887;51.980;4.464;2022-07-17T06:36:44;1.60;;;1.50;;
71183;SDS011;58887;51.980;4.464;2022-07-17T06:39:10;1.55;;;1.45;;
71183;SDS011;58887;51.980;4.464;2022-07-17T06:41:47;1.81;;;1.65;;
71183;SDS011;58887;51.980;4.464;2022-07-17T06:44:13;1.90;;;1.73;;
71183;SDS011;58887;51.980;4.464;2022-07-17T06:46:39;1.74;;;1.58;;
71183;SDS011;58887;51.980;4.464;2022-07-17T06:49:04;1.67;;;1.52;;
71183;SDS011;58887;51.980;4.464;2022-07-17T06:51:30;1.38;;;1.25;;
71183;SDS011;58887;51.980;4.464;2022-07-17T06:53:55;1.47;;;1.32;;
71183;SDS011;58887;51.980;4.464;2022-07-17T06:56:21;1.56;;;1.39;;
71183;SDS011;58887;51.980;4.464;2022-07-17T06:58:46;1.45;;;1.28;;
71183;SDS011;58887;51.980;4.464;2022-07-17T07:01:12;1.50;;;1.31;;
71183;SDS011;58887;51.980;4.464;2022-07-17T07:03:37;1.79;;;1.53;;
71183;SDS011;58887;51.980;4.464;2022-07-17T07:06:02;1.64;;;1.41;;
71183;SDS011;58887;51.980;4.464;2022-07-17T07:08:28;1.84;;;1.59;;
71183;SDS011;58887;51.980;4.464;2022-07-17T07:10:53;1.64;;;1.40;;
71183;SDS011;58887;51.980;4.464;2022-07-17T07:13:19;1.86;;;1.60;;
71183;SDS011;58887;51.980;4.464;2022-07-17T07:15:45;1.70;;;1.48;;
71183;SDS011;58887;51.980;4.464;2022-07-17T07:18:11;1.70;;;1.48;;
71183;SDS011;58887;51.980;4.464;2022-07-17T07:20:36;1.83;;;1.56;;
71183;SDS011;58887;51.980;4.464;2022-07-17T07:23:01;1.70;;;1.45;;
71183;SDS011;58887;51.980;4.464;2022-07-17T07:25:45;1.64;;;1.41;;
71183;SDS011;58887;51.980;4.464;2022-07-17T07:28:11;1.54;;;1.33;;
71183;SDS011;58887;51.980;4.464;2022-07-17T07:30:37;1.65;;;1.42;;
71183;SDS011;58887;51.980;4.464;2022-07-17T07:33:02;1.66;;;1.46;;
71183;SDS011;58887;51.980;4.464;2022-07-17T07:35:28;1.64;;;1.44;;
71183;SDS011;58887;51.980;4.464;2022-07-17T07:37:53;1.60;;;1.39;;
71183;SDS011;58887;51.980;4.464;2022-07-17T07:40:19;1.58;;;1.41;;
71183;SDS011;58887;51.980;4.464;2022-07-17T07:42:45;1.62;;;1.46;;
71183;SDS011;58887;51.980;4.464;2022-07-17T07:45:10;1.57;;;1.43;;
71183;SDS011;58887;51.980;4.464;2022-07-17T07:47:46;1.39;;;1.27;;
71183;SDS011;58887;51.980;4.464;2022-07-17T07:50:13;1.77;;;1.61;;
71183;SDS011;58887;51.980;4.464;2022-07-17T07:52:39;1.74;;;1.54;;
71183;SDS011;58887;51.980;4.464;2022-07-17T07:55:05;1.69;;;1.49;;
71183;SDS011;58887;51.980;4.464;2022-07-17T07:57:33;1.61;;;1.44;;
71183;SDS011;58887;51.980;4.464;2022-07-17T07:59:59;1.61;;;1.45;;
71183;SDS011;58887;51.980;4.464;2022-07-17T08:02:25;1.57;;;1.43;;
71183;SDS011;58887;51.980;4.464;2022-07-17T08:04:50;1.69;;;1.53;;
71183;SDS011;58887;51.980;4.464;2022-07-17T08:07:16;1.70;;;1.53;;
71183;SDS011;58887;51.980;4.464;2022-07-17T08:09:41;1.58;;;1.43;;
71183;SDS011;58887;51.980;4.464;2022-07-17T08:12:07;1.53;;;1.38;;
71183;SDS011;58887;51.980;4.464;2022-07-17T08:14:32;1.43;;;1.29;;
71183;SDS011;58887;51.980;4.464;2022-07-17T08:16:58;1.52;;;1.39;;
71183;SDS011;58887;51.980;4.464;2022-07-17T08:19:23;1.50;;;1.38;;
71183;SDS011;58887;51.980;4.464;2022-07-17T08:21:49;1.62;;;1.48;;
71183;SDS011;58887;51.980;4.464;2022-07-17T08:24:14;1.43;;;1.32;;
71183;SDS011;58887;51.980;4.464;2022-07-17T08:26:41;1.31;;;1.23;;
71183;SDS011;58887;51.980;4.464;2022-07-17T08:29:08;1.51;;;1.41;;
71183;SDS011;58887;51.980;4.464;2022-07-17T08:31:33;1.46;;;1.38;;
71183;SDS011;58887;51.980;4.464;2022-07-17T08:33:58;1.56;;;1.47;;
71183;SDS011;58887;51.980;4.464;2022-07-17T08:36:24;1.42;;;1.35;;
71183;SDS011;58887;51.980;4.464;2022-07-17T08:38:49;1.39;;;1.33;;
71183;SDS011;58887;51.980;4.464;2022-07-17T08:41:15;1.44;;;1.38;;
71183;SDS011;58887;51.980;4.464;2022-07-17T08:43:41;1.58;;;1.53;;
71183;SDS011;58887;51.980;4.464;2022-07-17T08:46:10;1.54;;;1.48;;
71183;SDS011;58887;51.980;4.464;2022-07-17T08:48:42;1.44;;;1.41;;
71183;SDS011;58887;51.980;4.464;2022-07-17T08:51:11;1.51;;;1.50;;
71183;SDS011;58887;51.980;4.464;2022-07-17T08:53:37;1.61;;;1.60;;
71183;SDS011;58887;51.980;4.464;2022-07-17T08:56:04;1.37;;;1.36;;
71183;SDS011;58887;51.980;4.464;2022-07-17T08:58:30;1.66;;;1.66;;
71183;SDS011;58887;51.980;4.464;2022-07-17T09:00:56;1.28;;;1.28;;
71183;SDS011;58887;51.980;4.464;2022-07-17T09:03:21;1.36;;;1.36;;
71183;SDS011;58887;51.980;4.464;2022-07-17T09:05:48;1.37;;;1.37;;
71183;SDS011;58887;51.980;4.464;2022-07-17T09:08:19;1.64;;;1.64;;
71183;SDS011;58887;51.980;4.464;2022-07-17T09:10:47;1.46;;;1.46;;
71183;SDS011;58887;51.980;4.464;2022-07-17T09:13:18;1.49;;;1.49;;
71183;SDS011;58887;51.980;4.464;2022-07-17T09:15:44;1.40;;;1.40;;
71183;SDS011;58887;51.980;4.464;2022-07-17T09:18:11;1.50;;;1.50;;
71183;SDS011;58887;51.980;4.464;2022-07-17T09:20:38;1.40;;;1.40;;
71183;SDS011;58887;51.980;4.464;2022-07-17T09:23:10;1.51;;;1.51;;
71183;SDS011;58887;51.980;4.464;2022-07-17T09:25:36;1.47;;;1.47;;
71183;SDS011;58887;51.980;4.464;2022-07-17T09:28:05;1.27;;;1.27;;
71183;SDS011;58887;51.980;4.464;2022-07-17T09:30:34;1.39;;;1.39;;
71183;SDS011;58887;51.980;4.464;2022-07-17T09:33:01;1.49;;;1.49;;
71183;SDS011;58887;51.980;4.464;2022-07-17T09:35:29;1.45;;;1.45;;
71183;SDS011;58887;51.980;4.464;2022-07-17T09:37:55;1.46;;;1.46;;
71183;SDS011;58887;51.980;4.464;2022-07-17T09:40:21;1.38;;;1.38;;
71183;SDS011;58887;51.980;4.464;2022-07-17T09:43:06;1.44;;;1.44;;
71183;SDS011;58887;51.980;4.464;2022-07-17T09:45:33;1.40;;;1.40;;
71183;SDS011;58887;51.980;4.464;2022-07-17T09:48:00;1.56;;;1.56;;
71183;SDS011;58887;51.980;4.464;2022-07-17T09:50:27;1.43;;;1.43;;
71183;SDS011;58887;51.980;4.464;2022-07-17T09:52:55;1.32;;;1.32;;
71183;SDS011;58887;51.980;4.464;2022-07-17T09:55:22;1.51;;;1.51;;
71183;SDS011;58887;51.980;4.464;2022-07-17T09:57:54;1.39;;;1.39;;
71183;SDS011;58887;51.980;4.464;2022-07-17T10:00:20;1.33;;;1.33;;
71183;SDS011;58887;51.980;4.464;2022-07-17T10:02:47;1.54;;;1.54;;
71183;SDS011;58887;51.980;4.464;2022-07-17T10:05:14;1.33;;;1.33;;
71183;SDS011;58887;51.980;4.464;2022-07-17T10:07:41;1.27;;;1.27;;
71183;SDS011;58887;51.980;4.464;2022-07-17T10:10:10;1.25;;;1.25;;
71183;SDS011;58887;51.980;4.464;2022-07-17T10:12:38;1.30;;;1.30;;
71183;SDS011;58887;51.980;4.464;2022-07-17T10:15:06;1.38;;;1.38;;
71183;SDS011;58887;51.980;4.464;2022-07-17T10:17:33;1.37;;;1.37;;
71183;SDS011;58887;51.980;4.464;2022-07-17T10:19:59;1.29;;;1.29;;
71183;SDS011;58887;51.980;4.464;2022-07-17T10:22:25;1.21;;;1.21;;
71183;SDS011;58887;51.980;4.464;2022-07-17T10:24:52;1.16;;;1.16;;
71183;SDS011;58887;51.980;4.464;2022-07-17T10:27:21;1.20;;;1.20;;
71183;SDS011;58887;51.980;4.464;2022-07-17T10:29:47;1.24;;;1.24;;
71183;SDS011;58887;51.980;4.464;2022-07-17T10:32:28;1.42;;;1.42;;
71183;SDS011;58887;51.980;4.464;2022-07-17T10:34:58;1.31;;;1.31;;
71183;SDS011;58887;51.980;4.464;2022-07-17T10:37:32;1.39;;;1.39;;
71183;SDS011;58887;51.980;4.464;2022-07-17T10:40:05;1.38;;;1.38;;
71183;SDS011;58887;51.980;4.464;2022-07-17T10:45:06;1.40;;;1.40;;
71183;SDS011;58887;51.980;4.464;2022-07-17T10:50:25;1.40;;;1.40;;
71183;SDS011;58887;51.980;4.464;2022-07-17T10:53:10;1.29;;;1.29;;
71183;SDS011;58887;51.980;4.464;2022-07-17T10:58:40;1.41;;;1.41;;
71183;SDS011;58887;51.980;4.464;2022-07-17T11:01:08;1.39;;;1.39;;
71183;SDS011;58887;51.980;4.464;2022-07-17T11:03:45;1.35;;;1.35;;
71183;SDS011;58887;51.980;4.464;2022-07-17T11:06:21;1.52;;;1.52;;
71183;SDS011;58887;51.980;4.464;2022-07-17T11:08:59;1.66;;;1.66;;
71183;SDS011;58887;51.980;4.464;2022-07-17T11:14:16;1.84;;;1.84;;
71183;SDS011;58887;51.980;4.464;2022-07-17T11:17:05;1.71;;;1.71;;
71183;SDS011;58887;51.980;4.464;2022-07-17T11:19:30;1.77;;;1.77;;
71183;SDS011;58887;51.980;4.464;2022-07-17T11:21:58;1.61;;;1.61;;
71183;SDS011;58887;51.980;4.464;2022-07-17T11:24:34;1.59;;;1.59;;
71183;SDS011;58887;51.980;4.464;2022-07-17T11:27:09;2.03;;;2.03;;
71183;SDS011;58887;51.980;4.464;2022-07-17T11:29:38;1.94;;;1.94;;
71183;SDS011;58887;51.980;4.464;2022-07-17T11:32:05;1.87;;;1.87;;
71183;SDS011;58887;51.980;4.464;2022-07-17T11:34:31;1.92;;;1.92;;
71183;SDS011;58887;51.980;4.464;2022-07-17T11:37:00;1.92;;;1.92;;
71183;SDS011;58887;51.980;4.464;2022-07-17T11:39:36;1.91;;;1.91;;
71183;SDS011;58887;51.980;4.464;2022-07-17T11:42:11;2.08;;;2.08;;
71183;SDS011;58887;51.980;4.464;2022-07-17T11:44:39;2.37;;;2.37;;
71183;SDS011;58887;51.980;4.464;2022-07-17T11:47:06;2.52;;;2.50;;
71183;SDS011;58887;51.980;4.464;2022-07-17T11:49:32;2.53;;;2.51;;
71183;SDS011;58887;51.980;4.464;2022-07-17T11:52:10;2.50;;;2.48;;
71183;SDS011;58887;51.980;4.464;2022-07-17T11:54:44;2.36;;;2.36;;
71183;SDS011;58887;51.980;4.464;2022-07-17T11:57:14;2.42;;;2.42;;
71183;SDS011;58887;51.980;4.464;2022-07-17T11:59:40;2.49;;;2.49;;
71183;SDS011;58887;51.980;4.464;2022-07-17T12:02:07;2.66;;;2.66;;
71183;SDS011;58887;51.980;4.464;2022-07-17T12:04:54;2.48;;;2.48;;
71183;SDS011;58887;51.980;4.464;2022-07-17T12:07:21;2.55;;;2.55;;
71183;SDS011;58887;51.980;4.464;2022-07-17T12:09:48;2.53;;;2.53;;
71183;SDS011;58887;51.980;4.464;2022-07-17T12:12:21;2.43;;;2.43;;
71183;SDS011;58887;51.980;4.464;2022-07-17T12:14:51;2.63;;;2.63;;
71183;SDS011;58887;51.980;4.464;2022-07-17T12:17:20;2.82;;;2.82;;
71183;SDS011;58887;51.980;4.464;2022-07-17T12:19:47;2.83;;;2.83;;
71183;SDS011;58887;51.980;4.464;2022-07-17T12:22:12;2.99;;;2.99;;
71183;SDS011;58887;51.980;4.464;2022-07-17T12:24:40;2.94;;;2.94;;
71183;SDS011;58887;51.980;4.464;2022-07-17T12:27:08;2.86;;;2.86;;
71183;SDS011;58887;51.980;4.464;2022-07-17T12:29:36;3.11;;;3.11;;
71183;SDS011;58887;51.980;4.464;2022-07-17T12:32:10;3.21;;;3.21;;
71183;SDS011;58887;51.980;4.464;2022-07-17T12:34:41;3.15;;;3.15;;
71183;SDS011;58887;51.980;4.464;2022-07-17T12:39:41;3.43;;;3.43;;
71183;SDS011;58887;51.980;4.464;2022-07-17T12:42:07;3.36;;;3.36;;
71183;SDS011;58887;51.980;4.464;2022-07-17T12:44:34;3.14;;;3.14;;
71183;SDS011;58887;51.980;4.464;2022-07-17T12:47:01;3.48;;;3.48;;
71183;SDS011;58887;51.980;4.464;2022-07-17T12:49:27;3.30;;;3.30;;
71183;SDS011;58887;51.980;4.464;2022-07-17T12:51:53;3.39;;;3.39;;
71183;SDS011;58887;51.980;4.464;2022-07-17T12:54:18;3.52;;;3.52;;
71183;SDS011;58887;51.980;4.464;2022-07-17T12:56:44;3.69;;;3.69;;
71183;SDS011;58887;51.980;4.464;2022-07-17T12:59:09;3.79;;;3.79;;
71183;SDS011;58887;51.980;4.464;2022-07-17T13:01:35;3.59;;;3.59;;
71183;SDS011;58887;51.980;4.464;2022-07-17T13:04:01;3.91;;;3.91;;
71183;SDS011;58887;51.980;4.464;2022-07-17T13:06:27;4.31;;;4.31;;
71183;SDS011;58887;51.980;4.464;2022-07-17T13:08:52;4.12;;;4.12;;
71183;SDS011;58887;51.980;4.464;2022-07-17T13:11:19;4.05;;;4.05;;
71183;SDS011;58887;51.980;4.464;2022-07-17T13:13:44;4.46;;;4.46;;
71183;SDS011;58887;51.980;4.464;2022-07-17T13:16:11;4.09;;;4.09;;
71183;SDS011;58887;51.980;4.464;2022-07-17T13:18:37;4.26;;;4.26;;
71183;SDS011;58887;51.980;4.464;2022-07-17T13:21:04;4.06;;;4.06;;
71183;SDS011;58887;51.980;4.464;2022-07-17T13:23:31;3.63;;;3.63;;
71183;SDS011;58887;51.980;4.464;2022-07-17T13:25:57;4.27;;;4.27;;
71183;SDS011;58887;51.980;4.464;2022-07-17T13:28:22;4.55;;;4.55;;
71183;SDS011;58887;51.980;4.464;2022-07-17T13:30:48;4.60;;;4.58;;
71183;SDS011;58887;51.980;4.464;2022-07-17T13:33:13;4.58;;;4.58;;
71183;SDS011;58887;51.980;4.464;2022-07-17T13:35:39;5.26;;;5.26;;
71183;SDS011;58887;51.980;4.464;2022-07-17T13:38:04;5.24;;;5.24;;
71183;SDS011;58887;51.980;4.464;2022-07-17T13:40:32;4.62;;;4.62;;
71183;SDS011;58887;51.980;4.464;2022-07-17T13:42:58;4.62;;;4.62;;
71183;SDS011;58887;51.980;4.464;2022-07-17T13:45:24;4.59;;;4.59;;
71183;SDS011;58887;51.980;4.464;2022-07-17T13:47:50;4.51;;;4.51;;
71183;SDS011;58887;51.980;4.464;2022-07-17T13:50:16;4.51;;;4.51;;
71183;SDS011;58887;51.980;4.464;2022-07-17T13:52:42;4.27;;;4.27;;
71183;SDS011;58887;51.980;4.464;2022-07-17T13:55:08;4.43;;;4.43;;
71183;SDS011;58887;51.980;4.464;2022-07-17T13:57:34;4.44;;;4.44;;
71183;SDS011;58887;51.980;4.464;2022-07-17T13:59:59;4.53;;;4.53;;
71183;SDS011;58887;51.980;4.464;2022-07-17T14:02:26;4.10;;;4.10;;
71183;SDS011;58887;51.980;4.464;2022-07-17T14:04:53;3.83;;;3.83;;
71183;SDS011;58887;51.980;4.464;2022-07-17T14:07:18;3.72;;;3.72;;
71183;SDS011;58887;51.980;4.464;2022-07-17T14:09:44;3.58;;;3.58;;
71183;SDS011;58887;51.980;4.464;2022-07-17T14:12:09;3.52;;;3.52;;
71183;SDS011;58887;51.980;4.464;2022-07-17T14:14:34;3.82;;;3.82;;
71183;SDS011;58887;51.980;4.464;2022-07-17T14:17:00;3.81;;;3.81;;
71183;SDS011;58887;51.980;4.464;2022-07-17T14:19:26;3.94;;;3.94;;
71183;SDS011;58887;51.980;4.464;2022-07-17T14:21:51;4.25;;;4.25;;
71183;SDS011;58887;51.980;4.464;2022-07-17T14:24:18;5.16;;;5.16;;
71183;SDS011;58887;51.980;4.464;2022-07-17T14:26:43;5.47;;;5.46;;
71183;SDS011;58887;51.980;4.464;2022-07-17T14:29:09;5.38;;;5.38;;
71183;SDS011;58887;51.980;4.464;2022-07-17T14:31:35;5.52;;;5.52;;
71183;SDS011;58887;51.980;4.464;2022-07-17T14:34:00;4.65;;;4.65;;
71183;SDS011;58887;51.980;4.464;2022-07-17T14:36:26;4.65;;;4.65;;
71183;SDS011;58887;51.980;4.464;2022-07-17T14:38:51;4.97;;;4.97;;
71183;SDS011;58887;51.980;4.464;2022-07-17T14:41:17;4.45;;;4.45;;
71183;SDS011;58887;51.980;4.464;2022-07-17T14:43:43;4.66;;;4.66;;
71183;SDS011;58887;51.980;4.464;2022-07-17T14:46:09;4.42;;;4.42;;
71183;SDS011;58887;51.980;4.464;2022-07-17T14:48:35;4.72;;;4.72;;
71183;SDS011;58887;51.980;4.464;2022-07-17T14:51:00;4.58;;;4.58;;
71183;SDS011;58887;51.980;4.464;2022-07-17T14:53:26;4.48;;;4.48;;
71183;SDS011;58887;51.980;4.464;2022-07-17T14:55:51;4.16;;;4.16;;
71183;SDS011;58887;51.980;4.464;2022-07-17T14:58:17;4.52;;;4.52;;
71183;SDS011;58887;51.980;4.464;2022-07-17T15:00:42;4.64;;;4.64;;
71183;SDS011;58887;51.980;4.464;2022-07-17T15:03:09;4.63;;;4.63;;